createdAt,value
2022-12-06T00:01:20.982Z,7.50
2022-12-06T00:03:51.915Z,6.40
2022-12-06T00:06:20.030Z,6.50
2022-12-06T00:08:47.809Z,6.40
2022-12-06T00:11:16.191Z,6.40
2022-12-06T00:13:45.191Z,6.40
2022-12-06T00:16:12.679Z,6.30
2022-12-06T00:18:39.694Z,6.80
2022-12-06T00:21:09.236Z,6.50
2022-12-06T00:23:39.494Z,6.30
2022-12-06T00:26:06.369Z,6.50
2022-12-06T00:28:33.517Z,5.10
2022-12-06T00:31:01.034Z,6.50
2022-12-06T00:33:28.148Z,7.60
2022-12-06T00:35:58.300Z,6.20
2022-12-06T00:38:25.511Z,6.00
2022-12-06T00:41:01.597Z,6.00
2022-12-06T00:43:28.566Z,7.30
2022-12-06T00:45:58.019Z,6.10
2022-12-06T00:48:25.124Z,5.90
2022-12-06T00:50:51.997Z,6.00
2022-12-06T00:53:21.939Z,6.60
2022-12-06T00:55:48.880Z,5.80
2022-12-06T00:58:15.839Z,5.80
2022-12-06T01:00:42.579Z,5.80
2022-12-06T01:03:09.646Z,5.70
2022-12-06T01:05:46.001Z,5.70
2022-12-06T01:08:12.875Z,5.70
2022-12-06T01:10:39.734Z,5.70
2022-12-06T01:13:06.596Z,6.00
2022-12-06T01:15:35.460Z,5.70
2022-12-06T01:18:02.513Z,5.60
2022-12-06T01:20:29.355Z,5.70
2022-12-06T01:22:56.485Z,6.80
2022-12-06T01:25:26.075Z,5.80
2022-12-06T01:27:53.608Z,4.80
2022-12-06T01:30:20.392Z,5.50
2022-12-06T01:32:48.396Z,5.60
2022-12-06T01:35:18.007Z,5.60
2022-12-06T01:37:44.748Z,5.60
2022-12-06T01:40:12.358Z,5.50
2022-12-06T01:42:39.203Z,5.50
2022-12-06T01:45:06.159Z,6.20
2022-12-06T01:47:34.092Z,5.50
2022-12-06T01:50:02.732Z,5.50
2022-12-06T01:52:31.632Z,6.50
2022-12-06T01:54:58.704Z,4.60
2022-12-06T01:57:25.533Z,5.60
2022-12-06T01:59:52.457Z,5.40
2022-12-06T02:02:19.524Z,5.40
2022-12-06T02:04:46.538Z,5.40
2022-12-06T02:07:13.481Z,5.40
2022-12-06T02:09:40.425Z,5.60
2022-12-06T02:12:11.509Z,5.30
2022-12-06T02:14:38.409Z,5.30
2022-12-06T02:17:11.323Z,5.30
2022-12-06T02:19:41.312Z,5.30
2022-12-06T02:22:08.171Z,5.30
2022-12-06T02:24:58.096Z,5.20
2022-12-06T02:27:44.315Z,5.20
2022-12-06T02:30:18.735Z,5.20
2022-12-06T02:32:53.186Z,5.10
2022-12-06T02:35:35.233Z,5.10
2022-12-06T02:38:14.099Z,5.10
2022-12-06T02:40:46.129Z,5.10
2022-12-06T02:43:13.695Z,5.10
2022-12-06T02:45:41.919Z,5.10
2022-12-06T02:48:08.803Z,4.20
2022-12-06T02:50:37.407Z,5.10
2022-12-06T02:53:04.267Z,5.10
2022-12-06T02:55:31.081Z,5.10
2022-12-06T02:57:57.981Z,5.40
2022-12-06T03:00:28.870Z,5.00
2022-12-06T03:02:58.006Z,5.00
2022-12-06T03:05:26.371Z,5.00
2022-12-06T03:07:53.138Z,5.00
2022-12-06T03:10:22.982Z,5.30
2022-12-06T03:12:52.931Z,4.90
2022-12-06T03:15:20.714Z,4.90
2022-12-06T03:17:48.567Z,4.90
2022-12-06T03:20:26.259Z,5.90
2022-12-06T03:22:54.519Z,4.80
2022-12-06T03:25:21.362Z,5.30
2022-12-06T03:27:52.743Z,4.70
2022-12-06T03:30:19.488Z,4.90
2022-12-06T03:32:47.228Z,4.70
2022-12-06T03:35:14.878Z,4.70
2022-12-06T03:37:44.186Z,4.60
2022-12-06T03:40:16.979Z,4.70
2022-12-06T03:42:43.827Z,4.70
2022-12-06T03:45:14.631Z,6.20
2022-12-06T03:47:50.928Z,5.00
2022-12-06T03:50:19.738Z,4.80
2022-12-06T03:52:46.667Z,4.80
2022-12-06T03:55:13.534Z,4.80
2022-12-06T03:57:40.427Z,4.80
2022-12-06T04:00:07.811Z,4.80
2022-12-06T04:02:34.651Z,4.80
2022-12-06T04:05:01.686Z,5.20
2022-12-06T04:07:28.693Z,4.80
2022-12-06T04:10:13.495Z,4.80
2022-12-06T04:13:03.573Z,4.90
2022-12-06T04:15:31.494Z,5.10
2022-12-06T04:18:14.292Z,4.60
2022-12-06T04:21:07.162Z,5.00
2022-12-06T04:23:41.213Z,5.10
2022-12-06T04:26:08.793Z,5.00
2022-12-06T04:28:54.464Z,5.00
2022-12-06T04:31:42.558Z,5.00
2022-12-06T04:34:28.243Z,5.00
2022-12-06T04:37:14.121Z,5.00
2022-12-06T04:39:41.016Z,5.10
2022-12-06T04:42:26.650Z,5.10
2022-12-06T04:44:53.789Z,5.20
2022-12-06T04:47:20.816Z,5.10
2022-12-06T04:49:47.749Z,5.60
2022-12-06T04:52:14.798Z,5.00
2022-12-06T04:54:41.874Z,5.20
2022-12-06T04:57:11.430Z,5.10
2022-12-06T04:59:39.124Z,5.10
2022-12-06T05:02:06.182Z,5.90
2022-12-06T05:04:33.170Z,6.80
2022-12-06T05:07:00.095Z,4.70
2022-12-06T05:09:26.928Z,5.50
2022-12-06T05:11:53.727Z,5.50
2022-12-06T05:14:20.673Z,7.00
2022-12-06T05:16:47.607Z,5.10
2022-12-06T05:19:15.535Z,5.20
2022-12-06T05:21:42.394Z,5.40
2022-12-06T05:24:09.163Z,6.10
2022-12-06T05:26:36.065Z,5.10
2022-12-06T05:29:05.757Z,5.20
2022-12-06T05:31:32.477Z,5.10
2022-12-06T05:33:59.583Z,5.90
2022-12-06T05:36:26.894Z,5.20
2022-12-06T05:38:53.958Z,6.60
2022-12-06T05:41:21.374Z,5.20
2022-12-06T05:43:48.213Z,6.30
2022-12-06T05:46:15.358Z,5.30
2022-12-06T05:48:42.316Z,5.30
2022-12-06T05:51:09.511Z,5.20
2022-12-06T05:53:36.734Z,5.20
2022-12-06T05:56:05.424Z,5.20
2022-12-06T05:58:32.446Z,5.20
2022-12-06T06:00:59.520Z,5.30
2022-12-06T06:03:27.098Z,5.20
2022-12-06T06:05:56.375Z,5.30
2022-12-06T06:08:23.682Z,5.20
2022-12-06T06:10:51.115Z,5.20
2022-12-06T06:13:18.081Z,5.30
2022-12-06T06:15:45.270Z,5.40
2022-12-06T06:18:12.240Z,5.30
2022-12-06T06:20:42.709Z,5.20
2022-12-06T06:23:09.895Z,6.20
2022-12-06T06:25:39.531Z,5.20
2022-12-06T06:28:06.600Z,5.10
2022-12-06T06:30:39.858Z,6.30
2022-12-06T06:33:30.174Z,5.20
2022-12-06T06:38:43.783Z,5.70
2022-12-06T07:02:05.408Z,4.80
2022-12-06T07:08:11.891Z,5.00
2022-12-06T07:11:16.985Z,5.00
2022-12-06T07:13:52.768Z,5.00
2022-12-06T07:22:27.006Z,4.10
2022-12-06T07:24:57.369Z,4.30
2022-12-06T07:27:24.207Z,4.60
2022-12-06T07:29:58.284Z,4.60
2022-12-06T07:32:29.260Z,4.60
2022-12-06T07:34:56.152Z,4.60
2022-12-06T07:37:29.407Z,4.60
2022-12-06T07:40:01.788Z,4.50
2022-12-06T07:42:50.989Z,4.60
2022-12-06T07:45:17.837Z,6.00
2022-12-06T07:47:45.013Z,4.50
2022-12-06T07:50:18.115Z,4.50
2022-12-06T07:52:57.610Z,4.40
2022-12-06T07:55:25.188Z,4.40
2022-12-06T07:57:52.141Z,4.40
2022-12-06T08:00:19.946Z,4.60
2022-12-06T08:05:37.987Z,4.40
2022-12-06T08:08:04.850Z,4.50
2022-12-06T08:15:46.293Z,4.30
2022-12-06T08:21:08.557Z,4.20
2022-12-06T08:23:35.681Z,4.30
2022-12-06T08:28:53.305Z,4.40
2022-12-06T08:31:21.016Z,4.40
2022-12-06T08:33:47.826Z,4.50
2022-12-06T08:36:17.954Z,4.50
2022-12-06T08:38:44.798Z,4.50
2022-12-06T08:41:31.736Z,4.30
2022-12-06T08:43:59.236Z,5.10
2022-12-06T08:46:26.493Z,4.70
2022-12-06T08:48:53.551Z,4.80
2022-12-06T08:51:22.865Z,4.70
2022-12-06T08:53:49.742Z,4.70
2022-12-06T08:56:16.635Z,5.00
2022-12-06T08:58:43.394Z,4.90
2022-12-06T09:01:11.833Z,4.90
2022-12-06T09:03:38.645Z,4.90
2022-12-06T09:06:05.655Z,5.10
2022-12-06T09:08:38.094Z,5.00
2022-12-06T09:11:05.290Z,5.70
2022-12-06T09:13:32.417Z,4.90
2022-12-06T09:15:59.399Z,4.90
2022-12-06T09:18:26.177Z,4.90
2022-12-06T09:20:52.923Z,4.90
2022-12-06T09:23:19.654Z,4.90
2022-12-06T09:25:46.483Z,4.90
2022-12-06T09:28:13.288Z,4.80
2022-12-06T09:30:40.196Z,5.00
2022-12-06T09:38:44.284Z,4.90
2022-12-06T09:45:06.331Z,6.70
2022-12-06T09:47:22.512Z,5.00
2022-12-06T10:17:13.400Z,6.30
2022-12-06T10:25:37.456Z,5.30
2022-12-06T10:28:08.076Z,5.70
2022-12-06T10:30:35.558Z,5.40
2022-12-06T10:33:05.789Z,5.40
2022-12-06T10:35:40.562Z,5.50
2022-12-06T10:38:17.182Z,5.50
2022-12-06T10:40:52.388Z,5.50
2022-12-06T10:43:29.547Z,5.50
2022-12-06T10:46:36.220Z,5.60
2022-12-06T10:49:12.218Z,5.50
2022-12-06T10:51:46.045Z,5.60
2022-12-06T10:54:30.802Z,5.60
2022-12-06T10:56:57.891Z,5.60
2022-12-06T10:59:30.460Z,5.40
2022-12-06T11:01:57.733Z,5.60
2022-12-06T11:04:27.932Z,5.60
2022-12-06T11:07:18.181Z,6.00
2022-12-06T11:09:45.979Z,5.60
2022-12-06T11:12:20.807Z,5.70
2022-12-06T11:14:48.465Z,5.70
2022-12-06T11:17:34.686Z,5.70
2022-12-06T11:20:12.264Z,5.70
2022-12-06T11:22:42.429Z,5.70
2022-12-06T11:25:09.411Z,5.70
2022-12-06T11:27:49.760Z,6.00
2022-12-06T11:30:20.645Z,5.80
2022-12-06T11:32:48.822Z,7.20
2022-12-06T11:35:16.226Z,5.20
2022-12-06T11:37:44.525Z,5.90
2022-12-06T11:40:20.836Z,6.20
2022-12-06T11:42:47.661Z,6.00
2022-12-06T11:45:27.849Z,6.10
2022-12-06T11:47:55.563Z,6.00
2022-12-06T11:50:23.588Z,6.10
2022-12-06T11:52:55.966Z,6.10
2022-12-06T11:55:30.671Z,6.20
2022-12-06T11:57:58.597Z,6.30
2022-12-06T12:00:25.561Z,6.60
2022-12-06T12:02:53.217Z,6.40
2022-12-06T12:05:23.998Z,6.40
2022-12-06T12:07:59.713Z,6.40
2022-12-06T12:10:36.700Z,6.50
2022-12-06T12:13:35.632Z,6.50
2022-12-06T12:16:03.741Z,6.50
2022-12-06T12:18:32.554Z,6.60
2022-12-06T12:21:08.521Z,7.10
2022-12-06T12:23:35.344Z,5.90
2022-12-06T12:26:05.271Z,6.70
2022-12-06T12:28:32.890Z,6.90
2022-12-06T12:31:03.255Z,6.70
2022-12-06T12:33:30.421Z,8.20
2022-12-06T12:36:06.385Z,6.90
2022-12-06T12:38:52.044Z,6.90
2022-12-06T12:41:31.394Z,7.80
2022-12-06T12:44:20.953Z,6.90
2022-12-06T12:46:49.356Z,7.90
2022-12-06T12:49:19.153Z,7.10
2022-12-06T12:51:48.223Z,7.00
2022-12-06T12:54:28.273Z,7.00
2022-12-06T12:56:55.339Z,7.10
2022-12-06T12:59:23.793Z,7.00
2022-12-06T13:01:50.898Z,7.00
2022-12-06T13:04:26.931Z,7.00
2022-12-06T13:07:12.514Z,7.00
2022-12-06T13:09:48.671Z,7.00
2022-12-06T13:12:33.525Z,7.40
2022-12-06T13:15:06.210Z,7.00
2022-12-06T13:17:44.430Z,7.10
2022-12-06T13:20:20.674Z,7.30
2022-12-06T13:22:59.471Z,7.20
2022-12-06T13:25:29.801Z,7.40
2022-12-06T13:28:09.035Z,6.90
2022-12-06T13:30:36.594Z,7.10
2022-12-06T13:33:05.204Z,7.80
2022-12-06T13:35:36.284Z,7.10
2022-12-06T13:38:24.344Z,7.90
2022-12-06T13:40:57.200Z,7.20
2022-12-06T13:43:24.571Z,7.10
2022-12-06T13:46:06.927Z,7.10
2022-12-06T13:48:36.135Z,7.10
2022-12-06T13:51:12.813Z,7.40
2022-12-06T13:53:58.593Z,7.10
2022-12-06T13:56:31.276Z,7.10
2022-12-06T13:58:58.755Z,7.20
2022-12-06T14:01:40.503Z,7.20
2022-12-06T14:07:24.501Z,7.20
2022-12-06T14:09:52.359Z,7.20
2022-12-06T14:12:27.813Z,7.20
2022-12-06T14:14:55.559Z,7.20
2022-12-06T14:17:52.688Z,7.20
2022-12-06T14:20:19.077Z,7.20
2022-12-06T14:22:46.437Z,7.20
2022-12-06T14:25:16.376Z,7.60
2022-12-06T14:27:44.621Z,8.00
2022-12-06T14:35:42.712Z,7.60
2022-12-06T14:38:23.285Z,7.30
2022-12-06T14:41:09.104Z,7.20
2022-12-06T14:43:36.553Z,7.10
2022-12-06T14:46:07.040Z,7.10
2022-12-06T14:48:52.522Z,7.00
2022-12-06T14:51:23.627Z,7.00
2022-12-06T14:53:50.629Z,6.90
2022-12-06T14:56:29.116Z,7.90
2022-12-06T14:58:59.874Z,7.10
2022-12-06T15:01:30.507Z,7.20
2022-12-06T15:03:58.739Z,6.70
2022-12-06T15:06:25.989Z,6.60
2022-12-06T15:08:55.591Z,6.70
2022-12-06T15:11:42.125Z,6.80
2022-12-06T15:14:13.022Z,6.90
2022-12-06T15:16:40.030Z,6.40
2022-12-06T15:19:13.050Z,6.40
2022-12-06T15:21:40.036Z,6.40
2022-12-06T15:24:23.190Z,6.40
2022-12-06T15:26:50.131Z,6.10
2022-12-06T15:29:16.931Z,6.70
2022-12-06T15:31:44.195Z,6.40
2022-12-06T15:34:24.476Z,7.60
2022-12-06T15:37:15.239Z,6.50
2022-12-06T15:39:41.045Z,6.00
2022-12-06T15:42:15.734Z,6.30
2022-12-06T15:44:48.821Z,6.30
2022-12-06T15:47:19.948Z,6.30
2022-12-06T15:49:47.113Z,6.20
2022-12-06T15:52:18.810Z,6.80
2022-12-06T15:54:45.620Z,7.80
2022-12-06T15:57:12.363Z,6.50
2022-12-06T15:59:39.136Z,7.00
2022-12-06T16:02:12.058Z,6.20
2022-12-06T16:04:39.131Z,6.10
2022-12-06T16:07:05.970Z,6.30
2022-12-06T16:09:32.832Z,6.80
2022-12-06T16:11:59.669Z,5.90
2022-12-06T16:14:26.361Z,5.80
2022-12-06T16:16:53.324Z,5.80
2022-12-06T16:19:20.048Z,5.70
2022-12-06T16:21:53.892Z,5.70
2022-12-06T16:24:20.711Z,5.70
2022-12-06T16:26:47.551Z,5.70
2022-12-06T16:29:14.324Z,5.70
2022-12-06T16:31:42.364Z,6.20
2022-12-06T16:34:09.746Z,5.70
2022-12-06T16:36:55.562Z,5.90
2022-12-06T16:39:22.640Z,5.70
2022-12-06T16:41:49.660Z,5.80
2022-12-06T16:44:18.869Z,5.80
2022-12-06T16:46:46.847Z,5.60
2022-12-06T16:52:08.882Z,6.10
2022-12-06T16:54:36.019Z,7.50
2022-12-06T16:57:02.865Z,6.90
2022-12-06T16:59:29.596Z,6.00
2022-12-06T17:01:56.385Z,6.00
2022-12-06T17:04:42.809Z,6.20
2022-12-06T17:07:10.807Z,6.10
2022-12-06T17:09:37.522Z,6.00
2022-12-06T17:12:06.440Z,5.90
2022-12-06T17:14:33.373Z,5.20
2022-12-06T17:17:04.197Z,5.20
2022-12-06T17:19:31.928Z,5.90
2022-12-06T17:21:58.782Z,5.90
2022-12-06T17:24:28.576Z,6.90
2022-12-06T17:26:56.241Z,5.90
2022-12-06T17:29:23.677Z,6.00
2022-12-06T17:31:51.214Z,5.90
2022-12-06T17:34:18.561Z,5.90
2022-12-06T17:36:45.517Z,6.80
2022-12-06T17:39:13.661Z,6.00
2022-12-06T17:41:58.959Z,6.80
2022-12-06T17:44:25.859Z,6.80
2022-12-06T17:46:55.514Z,6.60
2022-12-06T17:49:22.922Z,6.00
2022-12-06T17:51:50.012Z,6.00
2022-12-06T17:54:16.999Z,7.10
2022-12-06T17:56:44.531Z,6.10
2022-12-06T17:59:21.391Z,6.30
2022-12-06T18:02:13.996Z,6.10
2022-12-06T18:04:37.834Z,6.10
2022-12-06T18:07:04.993Z,6.10
2022-12-06T18:09:31.809Z,7.30
2022-12-06T18:12:01.868Z,6.10
2022-12-06T18:14:31.901Z,6.10
2022-12-06T18:17:00.958Z,6.00
2022-12-06T18:19:33.539Z,7.70
2022-12-06T18:22:01.600Z,5.50
2022-12-06T18:24:33.594Z,6.30
2022-12-06T18:27:02.387Z,6.20
2022-12-06T18:29:32.631Z,5.90
2022-12-06T18:31:59.463Z,6.80
2022-12-06T18:34:26.575Z,6.20
2022-12-06T18:37:00.683Z,7.20
2022-12-06T18:39:28.304Z,6.00
2022-12-06T18:41:55.440Z,6.20
2022-12-06T18:44:22.485Z,6.20
2022-12-06T18:46:49.337Z,6.80
2022-12-06T18:49:16.301Z,5.40
2022-12-06T18:51:43.435Z,6.20
2022-12-06T18:54:10.927Z,6.20
2022-12-06T18:56:37.699Z,6.20
2022-12-06T18:59:05.517Z,6.20
2022-12-06T19:01:32.838Z,6.20
2022-12-06T19:04:00.913Z,6.50
2022-12-06T19:06:29.856Z,6.20
2022-12-06T19:08:58.032Z,6.20
2022-12-06T19:11:24.855Z,6.20
2022-12-06T19:13:52.525Z,6.20
2022-12-06T19:16:21.437Z,5.30
2022-12-06T19:18:51.118Z,6.30
2022-12-06T19:21:18.076Z,6.90
2022-12-06T19:23:44.954Z,6.30
2022-12-06T19:26:11.928Z,6.20
2022-12-06T19:28:39.269Z,5.80
2022-12-06T19:31:06.539Z,6.30
2022-12-06T19:33:43.358Z,6.30
2022-12-06T19:36:14.146Z,6.50
2022-12-06T19:38:43.972Z,6.30
2022-12-06T19:41:16.748Z,6.70
2022-12-06T19:44:05.094Z,6.30
2022-12-06T19:46:34.458Z,6.50
2022-12-06T19:49:06.623Z,6.20
2022-12-06T19:51:44.273Z,6.20
2022-12-06T19:54:16.353Z,7.50
2022-12-06T19:56:43.223Z,6.70
2022-12-06T19:59:13.540Z,6.10
2022-12-06T20:01:43.417Z,6.70
2022-12-06T20:04:20.152Z,6.20
2022-12-06T20:06:47.388Z,6.40
2022-12-06T20:09:25.134Z,6.20
2022-12-06T20:12:04.820Z,6.40
2022-12-06T20:14:48.369Z,6.20
2022-12-06T20:17:21.463Z,6.50
2022-12-06T20:19:53.842Z,6.60
2022-12-06T20:22:23.721Z,6.20
2022-12-06T20:24:53.909Z,6.40
2022-12-06T20:27:52.715Z,6.50
2022-12-06T20:30:19.611Z,6.10
2022-12-06T20:32:50.192Z,6.10
2022-12-06T20:35:19.577Z,6.40
2022-12-06T20:37:50.182Z,6.20
2022-12-06T20:40:19.964Z,6.70
2022-12-06T20:42:50.261Z,6.20
2022-12-06T20:45:20.801Z,6.60
2022-12-06T20:47:51.180Z,7.10
2022-12-06T20:50:18.299Z,6.40
2022-12-06T20:52:49.160Z,6.30
2022-12-06T20:55:19.207Z,7.00
2022-12-06T20:57:46.244Z,7.30
2022-12-06T21:00:13.963Z,7.30
2022-12-06T21:02:41.540Z,4.90
2022-12-06T21:05:10.685Z,7.70
2022-12-06T21:07:37.494Z,6.20
2022-12-06T21:10:04.808Z,7.40
2022-12-06T21:12:31.724Z,6.20
2022-12-06T21:14:58.508Z,6.20
2022-12-06T21:17:25.352Z,5.80
2022-12-06T21:19:52.188Z,6.70
2022-12-06T21:22:19.138Z,5.60
2022-12-06T21:28:38.160Z,6.20
2022-12-06T21:40:27.077Z,4.90
2022-12-06T21:42:53.856Z,6.20
2022-12-06T21:45:23.312Z,6.00
2022-12-06T21:47:50.171Z,6.10
2022-12-06T21:50:19.780Z,6.00
2022-12-06T21:52:46.549Z,6.00
2022-12-06T21:55:13.322Z,5.90
2022-12-06T21:57:42.927Z,6.00
2022-12-06T22:00:12.568Z,6.30
2022-12-06T22:02:39.598Z,6.20
2022-12-06T22:05:06.674Z,6.10
2022-12-06T22:07:33.616Z,5.90
2022-12-06T22:10:01.046Z,6.10
2022-12-06T22:12:28.234Z,5.80
2022-12-06T22:14:55.150Z,5.70
2022-12-06T22:17:22.304Z,6.90
2022-12-06T22:19:52.207Z,5.70
2022-12-06T22:22:19.839Z,5.60
2022-12-06T22:24:46.833Z,5.60
2022-12-06T22:27:13.836Z,5.30
2022-12-06T22:29:40.723Z,6.70
2022-12-06T22:32:10.562Z,5.50
2022-12-06T22:34:39.821Z,6.00
2022-12-06T22:37:06.714Z,5.50
2022-12-06T22:39:33.525Z,5.80
2022-12-06T22:42:00.379Z,7.10
2022-12-06T22:44:27.237Z,5.30
2022-12-06T22:46:54.277Z,6.50
2022-12-06T22:49:21.106Z,6.20
2022-12-06T22:51:51.584Z,5.40
2022-12-06T22:54:18.480Z,5.70
2022-12-06T22:56:50.872Z,5.30
2022-12-06T22:59:17.942Z,5.40
2022-12-06T23:01:44.881Z,5.30
2022-12-06T23:04:35.462Z,6.00
2022-12-06T23:07:15.498Z,5.20
2022-12-06T23:10:44.778Z,4.60
2022-12-06T23:12:30.245Z,6.50
2022-12-06T23:14:57.405Z,5.40
2022-12-06T23:17:26.718Z,5.50
2022-12-06T23:19:59.638Z,5.20
2022-12-06T23:22:27.673Z,5.10
2022-12-06T23:24:57.095Z,6.90
2022-12-06T23:27:23.983Z,6.30
2022-12-06T23:29:52.961Z,5.20
2022-12-06T23:32:22.181Z,5.00
2022-12-06T23:34:51.197Z,5.50
2022-12-06T23:37:18.078Z,5.50
2022-12-06T23:39:45.418Z,5.40
2022-12-06T23:42:16.811Z,5.10
2022-12-06T23:44:43.556Z,5.20
2022-12-06T23:47:12.467Z,4.70
2022-12-06T23:49:41.563Z,6.60
2022-12-06T23:52:08.388Z,5.20
2022-12-06T23:54:38.223Z,6.00
2022-12-06T23:57:23.952Z,6.20
2022-12-06T23:59:50.849Z,5.30
